sensor_id;sensor_type;location;lat;lon;timestamp;P1;durP1;ratioP1;P2;durP2;ratioP2
54125;SDS011;40360;52.992;6.796;2023-04-25T00:01:36;21.27;;;5.70;;
54125;SDS011;40360;52.992;6.796;2023-04-25T00:04:02;20.23;;;4.50;;
54125;SDS011;40360;52.992;6.796;2023-04-25T00:06:31;24.63;;;5.22;;
54125;SDS011;40360;52.992;6.796;2023-04-25T00:08:57;14.93;;;5.18;;
54125;SDS011;40360;52.992;6.796;2023-04-25T00:11:23;18.58;;;4.43;;
54125;SDS011;40360;52.992;6.796;2023-04-25T00:13:48;16.35;;;5.55;;
54125;SDS011;40360;52.992;6.796;2023-04-25T00:16:17;18.83;;;5.47;;
54125;SDS011;40360;52.992;6.796;2023-04-25T00:18:43;19.42;;;6.70;;
54125;SDS011;40360;52.992;6.796;2023-04-25T00:21:11;22.80;;;6.85;;
54125;SDS011;40360;52.992;6.796;2023-04-25T00:23:36;18.13;;;5.38;;
54125;SDS011;40360;52.992;6.796;2023-04-25T00:26:03;28.80;;;6.90;;
54125;SDS011;40360;52.992;6.796;2023-04-25T00:28:29;20.63;;;5.07;;
54125;SDS011;40360;52.992;6.796;2023-04-25T00:30:55;21.08;;;5.30;;
54125;SDS011;40360;52.992;6.796;2023-04-25T00:33:20;28.33;;;5.55;;
54125;SDS011;40360;52.992;6.796;2023-04-25T00:35:46;24.90;;;6.03;;
54125;SDS011;40360;52.992;6.796;2023-04-25T00:38:12;28.85;;;7.22;;
54125;SDS011;40360;52.992;6.796;2023-04-25T00:40:37;19.75;;;4.55;;
54125;SDS011;40360;52.992;6.796;2023-04-25T00:43:03;24.08;;;4.85;;
54125;SDS011;40360;52.992;6.796;2023-04-25T00:45:29;21.48;;;5.40;;
54125;SDS011;40360;52.992;6.796;2023-04-25T00:47:55;21.70;;;4.97;;
54125;SDS011;40360;52.992;6.796;2023-04-25T00:50:21;23.73;;;6.85;;
54125;SDS011;40360;52.992;6.796;2023-04-25T00:52:48;18.70;;;5.32;;
54125;SDS011;40360;52.992;6.796;2023-04-25T00:55:14;28.17;;;5.55;;
54125;SDS011;40360;52.992;6.796;2023-04-25T00:57:40;21.25;;;5.07;;
54125;SDS011;40360;52.992;6.796;2023-04-25T01:00:07;24.83;;;5.50;;
54125;SDS011;40360;52.992;6.796;2023-04-25T01:02:34;19.23;;;4.82;;
54125;SDS011;40360;52.992;6.796;2023-04-25T01:05:01;19.98;;;4.50;;
54125;SDS011;40360;52.992;6.796;2023-04-25T01:07:27;25.00;;;5.68;;
54125;SDS011;40360;52.992;6.796;2023-04-25T01:09:53;28.48;;;6.65;;
54125;SDS011;40360;52.992;6.796;2023-04-25T01:12:19;24.40;;;5.85;;
54125;SDS011;40360;52.992;6.796;2023-04-25T01:14:44;24.83;;;5.60;;
54125;SDS011;40360;52.992;6.796;2023-04-25T01:17:11;15.30;;;5.13;;
54125;SDS011;40360;52.992;6.796;2023-04-25T01:19:37;24.30;;;5.82;;
54125;SDS011;40360;52.992;6.796;2023-04-25T01:22:03;20.10;;;4.65;;
54125;SDS011;40360;52.992;6.796;2023-04-25T01:24:29;23.45;;;5.60;;
54125;SDS011;40360;52.992;6.796;2023-04-25T01:26:56;14.85;;;4.88;;
54125;SDS011;40360;52.992;6.796;2023-04-25T01:29:25;23.40;;;5.03;;
54125;SDS011;40360;52.992;6.796;2023-04-25T01:31:52;14.93;;;4.60;;
54125;SDS011;40360;52.992;6.796;2023-04-25T01:34:18;18.25;;;5.13;;
54125;SDS011;40360;52.992;6.796;2023-04-25T01:36:44;22.08;;;6.10;;
54125;SDS011;40360;52.992;6.796;2023-04-25T01:39:11;19.27;;;4.82;;
54125;SDS011;40360;52.992;6.796;2023-04-25T01:41:37;24.23;;;4.93;;
54125;SDS011;40360;52.992;6.796;2023-04-25T01:44:03;20.90;;;4.55;;
54125;SDS011;40360;52.992;6.796;2023-04-25T01:46:29;29.08;;;5.72;;
54125;SDS011;40360;52.992;6.796;2023-04-25T01:48:55;25.20;;;5.30;;
54125;SDS011;40360;52.992;6.796;2023-04-25T01:51:21;11.82;;;4.93;;
54125;SDS011;40360;52.992;6.796;2023-04-25T01:53:47;21.58;;;5.63;;
54125;SDS011;40360;52.992;6.796;2023-04-25T01:56:12;22.15;;;4.80;;
54125;SDS011;40360;52.992;6.796;2023-04-25T01:58:38;18.95;;;4.63;;
54125;SDS011;40360;52.992;6.796;2023-04-25T02:01:04;20.67;;;5.88;;
54125;SDS011;40360;52.992;6.796;2023-04-25T02:03:30;22.45;;;5.07;;
54125;SDS011;40360;52.992;6.796;2023-04-25T02:05:57;21.17;;;4.32;;
54125;SDS011;40360;52.992;6.796;2023-04-25T02:08:22;18.00;;;4.20;;
54125;SDS011;40360;52.992;6.796;2023-04-25T02:10:48;17.50;;;4.50;;
54125;SDS011;40360;52.992;6.796;2023-04-25T02:13:13;16.30;;;4.38;;
54125;SDS011;40360;52.992;6.796;2023-04-25T02:15:39;21.88;;;5.15;;
54125;SDS011;40360;52.992;6.796;2023-04-25T02:18:06;19.38;;;5.18;;
54125;SDS011;40360;52.992;6.796;2023-04-25T02:20:32;19.63;;;4.22;;
54125;SDS011;40360;52.992;6.796;2023-04-25T02:22:58;16.85;;;3.63;;
54125;SDS011;40360;52.992;6.796;2023-04-25T02:25:23;16.60;;;4.45;;
54125;SDS011;40360;52.992;6.796;2023-04-25T02:27:49;19.38;;;4.72;;
54125;SDS011;40360;52.992;6.796;2023-04-25T02:30:16;15.60;;;4.05;;
54125;SDS011;40360;52.992;6.796;2023-04-25T02:32:42;13.10;;;3.25;;
54125;SDS011;40360;52.992;6.796;2023-04-25T02:35:08;21.55;;;4.95;;
54125;SDS011;40360;52.992;6.796;2023-04-25T02:37:34;23.52;;;3.50;;
54125;SDS011;40360;52.992;6.796;2023-04-25T02:40:01;19.63;;;3.67;;
54125;SDS011;40360;52.992;6.796;2023-04-25T02:42:28;17.95;;;3.22;;
54125;SDS011;40360;52.992;6.796;2023-04-25T02:44:54;13.48;;;3.47;;
54125;SDS011;40360;52.992;6.796;2023-04-25T02:47:20;17.50;;;4.80;;
54125;SDS011;40360;52.992;6.796;2023-04-25T02:49:46;12.63;;;3.15;;
54125;SDS011;40360;52.992;6.796;2023-04-25T02:52:12;16.08;;;3.95;;
54125;SDS011;40360;52.992;6.796;2023-04-25T02:54:38;13.80;;;4.18;;
54125;SDS011;40360;52.992;6.796;2023-04-25T02:57:05;13.13;;;3.53;;
54125;SDS011;40360;52.992;6.796;2023-04-25T02:59:30;13.10;;;3.20;;
54125;SDS011;40360;52.992;6.796;2023-04-25T03:01:56;21.60;;;5.13;;
54125;SDS011;40360;52.992;6.796;2023-04-25T03:04:21;18.30;;;4.32;;
54125;SDS011;40360;52.992;6.796;2023-04-25T03:06:49;13.27;;;4.57;;
54125;SDS011;40360;52.992;6.796;2023-04-25T03:09:18;15.93;;;3.45;;
54125;SDS011;40360;52.992;6.796;2023-04-25T03:11:44;19.77;;;3.60;;
54125;SDS011;40360;52.992;6.796;2023-04-25T03:14:10;17.35;;;3.30;;
54125;SDS011;40360;52.992;6.796;2023-04-25T03:16:36;16.08;;;3.15;;
54125;SDS011;40360;52.992;6.796;2023-04-25T03:19:02;13.80;;;3.45;;
54125;SDS011;40360;52.992;6.796;2023-04-25T03:21:28;17.55;;;3.33;;
54125;SDS011;40360;52.992;6.796;2023-04-25T03:23:54;19.30;;;3.70;;
54125;SDS011;40360;52.992;6.796;2023-04-25T03:26:20;12.98;;;3.35;;
54125;SDS011;40360;52.992;6.796;2023-04-25T03:28:45;18.17;;;3.47;;
54125;SDS011;40360;52.992;6.796;2023-04-25T03:31:11;14.68;;;4.20;;
54125;SDS011;40360;52.992;6.796;2023-04-25T03:33:36;24.90;;;3.70;;
54125;SDS011;40360;52.992;6.796;2023-04-25T03:36:02;12.02;;;3.00;;
54125;SDS011;40360;52.992;6.796;2023-04-25T03:38:28;17.70;;;3.80;;
54125;SDS011;40360;52.992;6.796;2023-04-25T03:40:54;14.43;;;3.60;;
54125;SDS011;40360;52.992;6.796;2023-04-25T03:43:21;16.42;;;3.20;;
54125;SDS011;40360;52.992;6.796;2023-04-25T03:45:46;17.80;;;4.22;;
54125;SDS011;40360;52.992;6.796;2023-04-25T03:48:12;20.55;;;4.07;;
54125;SDS011;40360;52.992;6.796;2023-04-25T03:50:38;18.05;;;4.07;;
54125;SDS011;40360;52.992;6.796;2023-04-25T03:53:03;18.25;;;3.40;;
54125;SDS011;40360;52.992;6.796;2023-04-25T03:55:29;11.82;;;2.88;;
54125;SDS011;40360;52.992;6.796;2023-04-25T03:57:54;20.38;;;3.70;;
54125;SDS011;40360;52.992;6.796;2023-04-25T04:00:20;14.77;;;3.45;;
54125;SDS011;40360;52.992;6.796;2023-04-25T04:02:46;17.38;;;3.45;;
54125;SDS011;40360;52.992;6.796;2023-04-25T04:05:11;13.18;;;3.03;;
54125;SDS011;40360;52.992;6.796;2023-04-25T04:07:37;14.55;;;4.50;;
54125;SDS011;40360;52.992;6.796;2023-04-25T04:10:08;16.98;;;3.30;;
54125;SDS011;40360;52.992;6.796;2023-04-25T04:12:35;16.50;;;3.50;;
54125;SDS011;40360;52.992;6.796;2023-04-25T04:15:01;12.13;;;4.03;;
54125;SDS011;40360;52.992;6.796;2023-04-25T04:17:29;14.98;;;2.63;;
54125;SDS011;40360;52.992;6.796;2023-04-25T04:19:54;19.13;;;4.18;;
54125;SDS011;40360;52.992;6.796;2023-04-25T04:22:20;14.52;;;3.00;;
54125;SDS011;40360;52.992;6.796;2023-04-25T04:24:47;15.60;;;3.17;;
54125;SDS011;40360;52.992;6.796;2023-04-25T04:27:12;14.50;;;3.50;;
54125;SDS011;40360;52.992;6.796;2023-04-25T04:29:38;13.90;;;2.78;;
54125;SDS011;40360;52.992;6.796;2023-04-25T04:32:04;14.25;;;3.90;;
54125;SDS011;40360;52.992;6.796;2023-04-25T04:34:30;13.30;;;2.78;;
54125;SDS011;40360;52.992;6.796;2023-04-25T04:36:56;13.65;;;3.10;;
54125;SDS011;40360;52.992;6.796;2023-04-25T04:39:22;15.98;;;3.75;;
54125;SDS011;40360;52.992;6.796;2023-04-25T04:41:47;13.57;;;2.97;;
54125;SDS011;40360;52.992;6.796;2023-04-25T04:44:13;15.57;;;3.72;;
54125;SDS011;40360;52.992;6.796;2023-04-25T04:46:40;10.48;;;2.90;;
54125;SDS011;40360;52.992;6.796;2023-04-25T04:49:09;12.88;;;3.60;;
54125;SDS011;40360;52.992;6.796;2023-04-25T04:51:36;14.30;;;3.45;;
54125;SDS011;40360;52.992;6.796;2023-04-25T04:54:02;24.00;;;4.05;;
54125;SDS011;40360;52.992;6.796;2023-04-25T04:56:31;7.82;;;2.28;;
54125;SDS011;40360;52.992;6.796;2023-04-25T04:58:57;13.95;;;3.03;;
54125;SDS011;40360;52.992;6.796;2023-04-25T05:01:24;14.02;;;3.10;;
54125;SDS011;40360;52.992;6.796;2023-04-25T05:03:50;11.50;;;3.45;;
54125;SDS011;40360;52.992;6.796;2023-04-25T05:06:17;11.70;;;2.45;;
54125;SDS011;40360;52.992;6.796;2023-04-25T05:08:43;8.30;;;2.63;;
54125;SDS011;40360;52.992;6.796;2023-04-25T05:11:09;9.85;;;2.97;;
54125;SDS011;40360;52.992;6.796;2023-04-25T05:13:35;19.35;;;4.50;;
54125;SDS011;40360;52.992;6.796;2023-04-25T05:16:00;7.40;;;2.40;;
54125;SDS011;40360;52.992;6.796;2023-04-25T05:18:26;14.50;;;3.05;;
54125;SDS011;40360;52.992;6.796;2023-04-25T05:20:51;9.77;;;2.35;;
54125;SDS011;40360;52.992;6.796;2023-04-25T05:23:18;9.48;;;2.25;;
54125;SDS011;40360;52.992;6.796;2023-04-25T05:25:44;10.65;;;2.10;;
54125;SDS011;40360;52.992;6.796;2023-04-25T05:28:10;13.45;;;2.13;;
54125;SDS011;40360;52.992;6.796;2023-04-25T05:30:37;8.07;;;2.10;;
54125;SDS011;40360;52.992;6.796;2023-04-25T05:33:03;12.80;;;2.78;;
54125;SDS011;40360;52.992;6.796;2023-04-25T05:35:28;12.63;;;2.58;;
54125;SDS011;40360;52.992;6.796;2023-04-25T05:37:54;10.20;;;2.45;;
54125;SDS011;40360;52.992;6.796;2023-04-25T05:40:20;14.20;;;2.92;;
54125;SDS011;40360;52.992;6.796;2023-04-25T05:42:45;8.73;;;3.33;;
54125;SDS011;40360;52.992;6.796;2023-04-25T06:00:03;9.15;;;3.30;;
54125;SDS011;40360;52.992;6.796;2023-04-25T06:02:33;14.73;;;3.40;;
54125;SDS011;40360;52.992;6.796;2023-04-25T06:04:59;9.27;;;2.58;;
54125;SDS011;40360;52.992;6.796;2023-04-25T06:07:25;13.80;;;2.58;;
54125;SDS011;40360;52.992;6.796;2023-04-25T06:09:50;11.18;;;2.55;;
54125;SDS011;40360;52.992;6.796;2023-04-25T06:12:16;13.90;;;2.83;;
54125;SDS011;40360;52.992;6.796;2023-04-25T06:14:41;14.93;;;2.70;;
54125;SDS011;40360;52.992;6.796;2023-04-25T06:17:07;13.55;;;3.47;;
54125;SDS011;40360;52.992;6.796;2023-04-25T06:19:33;15.45;;;2.63;;
54125;SDS011;40360;52.992;6.796;2023-04-25T06:22:00;7.15;;;2.33;;
54125;SDS011;40360;52.992;6.796;2023-04-25T06:24:26;15.70;;;3.42;;
54125;SDS011;40360;52.992;6.796;2023-04-25T06:26:52;11.23;;;3.45;;
54125;SDS011;40360;52.992;6.796;2023-04-25T06:29:18;9.38;;;2.63;;
54125;SDS011;40360;52.992;6.796;2023-04-25T06:31:44;13.27;;;4.13;;
54125;SDS011;40360;52.992;6.796;2023-04-25T06:34:10;17.67;;;3.38;;
54125;SDS011;40360;52.992;6.796;2023-04-25T06:36:35;13.95;;;3.58;;
54125;SDS011;40360;52.992;6.796;2023-04-25T06:39:01;14.38;;;3.78;;
54125;SDS011;40360;52.992;6.796;2023-04-25T06:41:27;13.02;;;2.85;;
54125;SDS011;40360;52.992;6.796;2023-04-25T06:43:53;10.27;;;3.00;;
54125;SDS011;40360;52.992;6.796;2023-04-25T06:46:18;16.13;;;3.22;;
54125;SDS011;40360;52.992;6.796;2023-04-25T06:48:44;12.02;;;3.72;;
54125;SDS011;40360;52.992;6.796;2023-04-25T06:51:10;14.30;;;2.40;;
54125;SDS011;40360;52.992;6.796;2023-04-25T06:53:35;13.82;;;3.00;;
54125;SDS011;40360;52.992;6.796;2023-04-25T06:56:01;14.32;;;2.25;;
54125;SDS011;40360;52.992;6.796;2023-04-25T06:58:28;12.18;;;3.53;;
54125;SDS011;40360;52.992;6.796;2023-04-25T07:00:53;10.27;;;3.00;;
54125;SDS011;40360;52.992;6.796;2023-04-25T07:03:19;12.23;;;2.70;;
54125;SDS011;40360;52.992;6.796;2023-04-25T07:05:45;11.25;;;2.85;;
54125;SDS011;40360;52.992;6.796;2023-04-25T07:08:11;14.63;;;2.72;;
54125;SDS011;40360;52.992;6.796;2023-04-25T07:10:36;9.30;;;2.13;;
54125;SDS011;40360;52.992;6.796;2023-04-25T07:13:02;12.57;;;3.03;;
54125;SDS011;40360;52.992;6.796;2023-04-25T07:15:28;13.05;;;2.50;;
54125;SDS011;40360;52.992;6.796;2023-04-25T07:17:53;10.80;;;2.33;;
54125;SDS011;40360;52.992;6.796;2023-04-25T07:20:19;13.10;;;2.88;;
54125;SDS011;40360;52.992;6.796;2023-04-25T07:22:45;10.75;;;2.42;;
54125;SDS011;40360;52.992;6.796;2023-04-25T07:25:10;9.60;;;2.80;;
54125;SDS011;40360;52.992;6.796;2023-04-25T07:27:36;11.80;;;2.50;;
54125;SDS011;40360;52.992;6.796;2023-04-25T07:30:02;9.48;;;2.13;;
54125;SDS011;40360;52.992;6.796;2023-04-25T07:32:29;8.20;;;2.88;;
54125;SDS011;40360;52.992;6.796;2023-04-25T07:34:54;12.13;;;2.42;;
54125;SDS011;40360;52.992;6.796;2023-04-25T07:37:20;10.70;;;2.55;;
54125;SDS011;40360;52.992;6.796;2023-04-25T07:39:46;8.07;;;2.30;;
54125;SDS011;40360;52.992;6.796;2023-04-25T07:42:12;13.48;;;2.60;;
54125;SDS011;40360;52.992;6.796;2023-04-25T07:44:38;6.70;;;2.20;;
54125;SDS011;40360;52.992;6.796;2023-04-25T07:47:08;8.60;;;2.03;;
54125;SDS011;40360;52.992;6.796;2023-04-25T07:49:37;9.60;;;1.77;;
54125;SDS011;40360;52.992;6.796;2023-04-25T07:52:03;9.05;;;2.53;;
54125;SDS011;40360;52.992;6.796;2023-04-25T07:54:31;9.40;;;2.35;;
54125;SDS011;40360;52.992;6.796;2023-04-25T07:56:57;11.05;;;2.20;;
54125;SDS011;40360;52.992;6.796;2023-04-25T07:59:23;8.48;;;2.13;;
54125;SDS011;40360;52.992;6.796;2023-04-25T08:01:49;7.70;;;1.58;;
54125;SDS011;40360;52.992;6.796;2023-04-25T08:04:15;6.38;;;1.80;;
54125;SDS011;40360;52.992;6.796;2023-04-25T08:06:41;9.98;;;2.15;;
54125;SDS011;40360;52.992;6.796;2023-04-25T08:09:06;6.68;;;2.25;;
54125;SDS011;40360;52.992;6.796;2023-04-25T08:11:34;4.53;;;1.60;;
54125;SDS011;40360;52.992;6.796;2023-04-25T08:14:00;8.27;;;1.60;;
54125;SDS011;40360;52.992;6.796;2023-04-25T08:16:25;7.35;;;1.92;;
54125;SDS011;40360;52.992;6.796;2023-04-25T08:18:51;9.63;;;1.75;;
54125;SDS011;40360;52.992;6.796;2023-04-25T08:21:16;11.48;;;2.15;;
54125;SDS011;40360;52.992;6.796;2023-04-25T08:23:42;9.00;;;1.60;;
54125;SDS011;40360;52.992;6.796;2023-04-25T08:26:11;8.38;;;1.70;;
54125;SDS011;40360;52.992;6.796;2023-04-25T08:28:38;14.45;;;2.33;;
54125;SDS011;40360;52.992;6.796;2023-04-25T08:31:04;6.18;;;1.70;;
54125;SDS011;40360;52.992;6.796;2023-04-25T08:33:29;5.18;;;2.00;;
54125;SDS011;40360;52.992;6.796;2023-04-25T08:35:57;12.77;;;2.22;;
54125;SDS011;40360;52.992;6.796;2023-04-25T08:38:23;7.13;;;2.28;;
54125;SDS011;40360;52.992;6.796;2023-04-25T08:40:49;4.78;;;1.63;;
54125;SDS011;40360;52.992;6.796;2023-04-25T08:43:17;15.40;;;2.88;;
54125;SDS011;40360;52.992;6.796;2023-04-25T08:45:43;4.10;;;1.80;;
54125;SDS011;40360;52.992;6.796;2023-04-25T08:48:11;9.98;;;1.75;;
54125;SDS011;40360;52.992;6.796;2023-04-25T08:50:40;12.73;;;2.15;;
54125;SDS011;40360;52.992;6.796;2023-04-25T08:53:10;8.18;;;2.33;;
54125;SDS011;40360;52.992;6.796;2023-04-25T08:55:41;10.02;;;1.85;;
54125;SDS011;40360;52.992;6.796;2023-04-25T08:58:07;6.45;;;1.77;;
54125;SDS011;40360;52.992;6.796;2023-04-25T09:00:35;3.75;;;1.23;;
54125;SDS011;40360;52.992;6.796;2023-04-25T09:03:01;3.33;;;0.85;;
54125;SDS011;40360;52.992;6.796;2023-04-25T09:05:28;2.42;;;0.90;;
54125;SDS011;40360;52.992;6.796;2023-04-25T09:07:53;3.78;;;1.10;;
54125;SDS011;40360;52.992;6.796;2023-04-25T09:10:19;5.40;;;1.02;;
54125;SDS011;40360;52.992;6.796;2023-04-25T09:12:45;3.53;;;1.02;;
54125;SDS011;40360;52.992;6.796;2023-04-25T09:15:28;5.97;;;1.00;;
54125;SDS011;40360;52.992;6.796;2023-04-25T09:17:55;4.18;;;0.93;;
54125;SDS011;40360;52.992;6.796;2023-04-25T09:20:21;5.30;;;1.30;;
54125;SDS011;40360;52.992;6.796;2023-04-25T09:22:47;3.83;;;1.02;;
54125;SDS011;40360;52.992;6.796;2023-04-25T09:25:13;3.50;;;0.90;;
54125;SDS011;40360;52.992;6.796;2023-04-25T09:27:51;4.95;;;1.10;;
54125;SDS011;40360;52.992;6.796;2023-04-25T09:30:18;4.75;;;1.00;;
54125;SDS011;40360;52.992;6.796;2023-04-25T09:32:55;3.40;;;1.75;;
54125;SDS011;40360;52.992;6.796;2023-04-25T09:35:25;3.67;;;1.00;;
54125;SDS011;40360;52.992;6.796;2023-04-25T09:37:51;3.17;;;0.98;;
54125;SDS011;40360;52.992;6.796;2023-04-25T09:40:17;5.25;;;1.23;;
54125;SDS011;40360;52.992;6.796;2023-04-25T09:42:43;4.50;;;1.10;;
54125;SDS011;40360;52.992;6.796;2023-04-25T09:45:09;7.53;;;1.88;;
54125;SDS011;40360;52.992;6.796;2023-04-25T09:47:40;8.02;;;1.80;;
54125;SDS011;40360;52.992;6.796;2023-04-25T09:50:15;14.60;;;1.88;;
54125;SDS011;40360;52.992;6.796;2023-04-25T09:52:42;3.47;;;1.20;;
54125;SDS011;40360;52.992;6.796;2023-04-25T09:55:08;7.75;;;1.60;;
54125;SDS011;40360;52.992;6.796;2023-04-25T09:57:34;5.55;;;1.30;;
54125;SDS011;40360;52.992;6.796;2023-04-25T10:00:04;8.70;;;1.60;;
54125;SDS011;40360;52.992;6.796;2023-04-25T10:02:34;8.38;;;2.00;;
54125;SDS011;40360;52.992;6.796;2023-04-25T10:05:01;7.32;;;1.80;;
54125;SDS011;40360;52.992;6.796;2023-04-25T10:07:31;8.48;;;1.70;;
54125;SDS011;40360;52.992;6.796;2023-04-25T10:09:59;11.55;;;1.67;;
54125;SDS011;40360;52.992;6.796;2023-04-25T10:12:27;8.40;;;1.80;;
54125;SDS011;40360;52.992;6.796;2023-04-25T10:14:54;3.80;;;1.40;;
54125;SDS011;40360;52.992;6.796;2023-04-25T10:17:20;4.53;;;1.02;;
54125;SDS011;40360;52.992;6.796;2023-04-25T10:19:46;5.65;;;1.10;;
54125;SDS011;40360;52.992;6.796;2023-04-25T10:22:32;3.88;;;1.23;;
54125;SDS011;40360;52.992;6.796;2023-04-25T10:25:01;5.95;;;1.35;;
54125;SDS011;40360;52.992;6.796;2023-04-25T10:27:30;3.40;;;1.00;;
54125;SDS011;40360;52.992;6.796;2023-04-25T10:30:03;6.75;;;1.58;;
54125;SDS011;40360;52.992;6.796;2023-04-25T10:32:31;3.22;;;1.15;;
54125;SDS011;40360;52.992;6.796;2023-04-25T10:35:13;4.97;;;1.70;;
54125;SDS011;40360;52.992;6.796;2023-04-25T10:40:41;6.93;;;1.48;;
54125;SDS011;40360;52.992;6.796;2023-04-25T10:45:56;6.15;;;1.48;;
54125;SDS011;40360;52.992;6.796;2023-04-25T10:48:28;5.07;;;1.80;;
54125;SDS011;40360;52.992;6.796;2023-04-25T10:51:09;8.02;;;2.35;;
54125;SDS011;40360;52.992;6.796;2023-04-25T10:53:36;9.40;;;2.28;;
54125;SDS011;40360;52.992;6.796;2023-04-25T10:56:17;3.83;;;1.17;;
54125;SDS011;40360;52.992;6.796;2023-04-25T10:59:18;16.00;;;1.70;;
54125;SDS011;40360;52.992;6.796;2023-04-25T11:01:52;9.23;;;1.58;;
54125;SDS011;40360;52.992;6.796;2023-04-25T11:09:31;6.05;;;2.00;;
54125;SDS011;40360;52.992;6.796;2023-04-25T11:11:58;6.78;;;1.55;;
54125;SDS011;40360;52.992;6.796;2023-04-25T11:14:25;8.05;;;2.03;;
54125;SDS011;40360;52.992;6.796;2023-04-25T11:16:58;4.30;;;1.33;;
54125;SDS011;40360;52.992;6.796;2023-04-25T11:19:25;3.03;;;1.23;;
54125;SDS011;40360;52.992;6.796;2023-04-25T11:21:54;6.38;;;1.77;;
54125;SDS011;40360;52.992;6.796;2023-04-25T11:24:25;6.30;;;1.77;;
54125;SDS011;40360;52.992;6.796;2023-04-25T11:26:52;7.45;;;1.83;;
54125;SDS011;40360;52.992;6.796;2023-04-25T11:29:17;10.38;;;2.50;;
54125;SDS011;40360;52.992;6.796;2023-04-25T11:31:43;10.63;;;2.35;;
54125;SDS011;40360;52.992;6.796;2023-04-25T11:34:10;11.55;;;2.13;;
54125;SDS011;40360;52.992;6.796;2023-04-25T11:36:36;8.57;;;2.40;;
54125;SDS011;40360;52.992;6.796;2023-04-25T11:39:03;9.80;;;2.33;;
54125;SDS011;40360;52.992;6.796;2023-04-25T11:41:30;6.35;;;1.55;;
54125;SDS011;40360;52.992;6.796;2023-04-25T11:43:56;11.27;;;1.73;;
54125;SDS011;40360;52.992;6.796;2023-04-25T11:46:22;9.02;;;1.85;;
54125;SDS011;40360;52.992;6.796;2023-04-25T11:48:47;9.82;;;2.40;;
54125;SDS011;40360;52.992;6.796;2023-04-25T11:51:15;10.25;;;1.98;;
54125;SDS011;40360;52.992;6.796;2023-04-25T11:53:41;10.13;;;2.70;;
54125;SDS011;40360;52.992;6.796;2023-04-25T11:56:10;10.90;;;2.17;;
54125;SDS011;40360;52.992;6.796;2023-04-25T11:58:56;5.68;;;1.60;;
54125;SDS011;40360;52.992;6.796;2023-04-25T12:01:29;6.82;;;2.00;;
54125;SDS011;40360;52.992;6.796;2023-04-25T12:03:56;12.32;;;1.92;;
54125;SDS011;40360;52.992;6.796;2023-04-25T12:06:26;9.77;;;2.30;;
54125;SDS011;40360;52.992;6.796;2023-04-25T12:09:03;9.43;;;2.10;;
54125;SDS011;40360;52.992;6.796;2023-04-25T12:11:32;7.32;;;1.60;;
54125;SDS011;40360;52.992;6.796;2023-04-25T12:14:07;7.15;;;1.70;;
54125;SDS011;40360;52.992;6.796;2023-04-25T12:16:45;9.57;;;1.98;;
54125;SDS011;40360;52.992;6.796;2023-04-25T12:19:18;9.90;;;2.65;;
54125;SDS011;40360;52.992;6.796;2023-04-25T12:21:45;6.07;;;1.85;;
54125;SDS011;40360;52.992;6.796;2023-04-25T12:26:58;8.65;;;2.25;;
54125;SDS011;40360;52.992;6.796;2023-04-25T12:29:29;10.60;;;2.33;;
54125;SDS011;40360;52.992;6.796;2023-04-25T12:31:56;4.18;;;1.30;;
54125;SDS011;40360;52.992;6.796;2023-04-25T12:34:23;4.40;;;1.73;;
54125;SDS011;40360;52.992;6.796;2023-04-25T12:36:49;6.18;;;1.75;;
54125;SDS011;40360;52.992;6.796;2023-04-25T12:41:52;7.13;;;1.40;;
54125;SDS011;40360;52.992;6.796;2023-04-25T12:44:19;7.85;;;1.98;;
54125;SDS011;40360;52.992;6.796;2023-04-25T12:46:46;5.05;;;1.50;;
54125;SDS011;40360;52.992;6.796;2023-04-25T12:49:12;4.97;;;1.98;;
54125;SDS011;40360;52.992;6.796;2023-04-25T12:51:38;9.32;;;1.77;;
54125;SDS011;40360;52.992;6.796;2023-04-25T12:54:04;8.50;;;1.85;;
54125;SDS011;40360;52.992;6.796;2023-04-25T12:56:34;9.65;;;1.40;;
54125;SDS011;40360;52.992;6.796;2023-04-25T12:59:01;5.43;;;1.90;;
54125;SDS011;40360;52.992;6.796;2023-04-25T13:01:28;10.38;;;1.92;;
54125;SDS011;40360;52.992;6.796;2023-04-25T13:03:54;8.02;;;1.73;;
54125;SDS011;40360;52.992;6.796;2023-04-25T13:06:20;12.85;;;2.78;;
54125;SDS011;40360;52.992;6.796;2023-04-25T13:08:47;7.35;;;1.75;;
54125;SDS011;40360;52.992;6.796;2023-04-25T13:11:13;6.93;;;1.55;;
54125;SDS011;40360;52.992;6.796;2023-04-25T13:13:40;5.85;;;1.55;;
54125;SDS011;40360;52.992;6.796;2023-04-25T13:16:06;7.93;;;1.30;;
54125;SDS011;40360;52.992;6.796;2023-04-25T13:18:32;7.22;;;1.98;;
54125;SDS011;40360;52.992;6.796;2023-04-25T13:20:58;10.88;;;1.60;;
54125;SDS011;40360;52.992;6.796;2023-04-25T13:23:27;10.40;;;1.65;;
54125;SDS011;40360;52.992;6.796;2023-04-25T13:25:54;6.50;;;1.90;;
54125;SDS011;40360;52.992;6.796;2023-04-25T13:28:20;9.02;;;2.35;;
54125;SDS011;40360;52.992;6.796;2023-04-25T13:30:46;8.77;;;1.95;;
54125;SDS011;40360;52.992;6.796;2023-04-25T13:33:13;10.63;;;1.83;;
54125;SDS011;40360;52.992;6.796;2023-04-25T13:35:40;5.38;;;1.98;;
54125;SDS011;40360;52.992;6.796;2023-04-25T13:38:06;9.73;;;1.90;;
54125;SDS011;40360;52.992;6.796;2023-04-25T13:40:32;5.22;;;1.38;;
54125;SDS011;40360;52.992;6.796;2023-04-25T13:42:58;6.32;;;2.50;;
54125;SDS011;40360;52.992;6.796;2023-04-25T13:45:24;5.78;;;1.55;;
54125;SDS011;40360;52.992;6.796;2023-04-25T13:47:50;9.20;;;1.52;;
54125;SDS011;40360;52.992;6.796;2023-04-25T13:50:15;4.47;;;1.20;;
54125;SDS011;40360;52.992;6.796;2023-04-25T13:52:42;6.80;;;1.55;;
54125;SDS011;40360;52.992;6.796;2023-04-25T13:55:08;6.45;;;2.20;;
54125;SDS011;40360;52.992;6.796;2023-04-25T13:57:34;7.03;;;1.98;;
54125;SDS011;40360;52.992;6.796;2023-04-25T14:00:01;12.80;;;1.88;;
54125;SDS011;40360;52.992;6.796;2023-04-25T14:02:37;4.95;;;1.70;;
54125;SDS011;40360;52.992;6.796;2023-04-25T14:05:03;12.77;;;2.33;;
54125;SDS011;40360;52.992;6.796;2023-04-25T14:07:29;8.60;;;1.90;;
54125;SDS011;40360;52.992;6.796;2023-04-25T14:09:55;7.68;;;1.90;;
54125;SDS011;40360;52.992;6.796;2023-04-25T14:12:22;10.05;;;2.00;;
54125;SDS011;40360;52.992;6.796;2023-04-25T14:14:48;11.23;;;1.85;;
54125;SDS011;40360;52.992;6.796;2023-04-25T14:17:14;10.10;;;1.98;;
54125;SDS011;40360;52.992;6.796;2023-04-25T14:19:39;8.80;;;1.83;;
54125;SDS011;40360;52.992;6.796;2023-04-25T14:22:08;9.75;;;2.55;;
54125;SDS011;40360;52.992;6.796;2023-04-25T14:24:34;5.93;;;1.60;;
54125;SDS011;40360;52.992;6.796;2023-04-25T14:27:00;9.65;;;1.70;;
54125;SDS011;40360;52.992;6.796;2023-04-25T14:29:26;2.90;;;1.30;;
54125;SDS011;40360;52.992;6.796;2023-04-25T14:31:51;6.85;;;1.70;;
54125;SDS011;40360;52.992;6.796;2023-04-25T14:34:18;8.65;;;1.75;;
54125;SDS011;40360;52.992;6.796;2023-04-25T14:36:44;4.38;;;1.40;;
54125;SDS011;40360;52.992;6.796;2023-04-25T14:39:09;9.43;;;1.80;;
54125;SDS011;40360;52.992;6.796;2023-04-25T14:41:35;11.98;;;2.60;;
54125;SDS011;40360;52.992;6.796;2023-04-25T14:44:00;5.22;;;1.55;;
54125;SDS011;40360;52.992;6.796;2023-04-25T14:46:26;8.15;;;1.70;;
54125;SDS011;40360;52.992;6.796;2023-04-25T14:48:52;5.47;;;2.10;;
54125;SDS011;40360;52.992;6.796;2023-04-25T14:51:18;11.43;;;2.30;;
54125;SDS011;40360;52.992;6.796;2023-04-25T14:53:43;5.88;;;1.73;;
54125;SDS011;40360;52.992;6.796;2023-04-25T14:56:09;11.30;;;2.80;;
54125;SDS011;40360;52.992;6.796;2023-04-25T14:58:35;5.97;;;2.00;;
54125;SDS011;40360;52.992;6.796;2023-04-25T15:01:00;6.95;;;1.50;;
54125;SDS011;40360;52.992;6.796;2023-04-25T15:03:26;8.65;;;2.47;;
54125;SDS011;40360;52.992;6.796;2023-04-25T15:05:52;12.05;;;2.45;;
54125;SDS011;40360;52.992;6.796;2023-04-25T15:08:19;6.45;;;2.08;;
54125;SDS011;40360;52.992;6.796;2023-04-25T15:10:46;8.00;;;1.92;;